Terminal Aerodrome Forecast
Issued by NWS

Home | Current Version | Previous Version | Text Only | Print | Product List | Glossary On
Versions: 1 2 3 4 5 6 7 8 9 10 11 12 13 14 15 16 17 18 19 20 21 22 23 24 25 26 27 28 29 30 31 32 33 34 35 36 37 38 39 40 41 42 43 44 45 46 47 48
000
FTUS41 KBOX 232320
TAFACK
TAF
KACK 232320Z 2400/2424 20015G26KT 5SM BR OVC015 WS020/23045KT
     FM240400 20016G25KT 1/2SM FG VCSH OVC004 WS020/24050KT
     FM240800 21017G26KT 2SM BR VCTS BKN008CB WS020/24050KT
     FM241300 22019KT 2SM BR VCSH OVC008 WS020/24045KT
     FM241500 22019G27KT 4SM -SHRA BR BKN010
     FM241700 22018G26KT 5SM -SHRA BKN015 WS020/24045KT
     FM241900 23016G23KT P6SM BKN250=

USA.gov is the U.S. government's official web portal to all federal, state and local government web resources and services.